Crawfordsville, IN

6:55 PM EST on February 27, 2015 (GMT -0500)
Eagle Creek | Change Station
CLOSE
Current Station
Airport
Location: Eagle Creek,
Elevation: 820 ft
Nearby Weather Stations
Active Advisory: Special Statement

Elev 820 ft 39.83 °N, 86.30 °W | Updated 1 hour ago

Clear
Clear
13 °F
Feels Like 5 °F
N
5
Wind Variable Wind from WNW

Today
High -- | Low -- °F
--% Chance of Precip.
Yesterday
High -- | Low -- °F
Precip. -- in
7:24 AM 6:37 PM
Waxing Gibbous, 72% visible
Pressure 30.65 in
Visibility 10.0 miles
Clouds Clear
Windchill 5 °F
Dew Point -3 °F
Humidity 49%
Rainfall 0.00 in
Snow Depth Not available.
UV 0 out of 12
Pollen .60 out of 12
Air Quality Not available.
Flu Activity Not available.
METAR KEYE 272253Z AUTO 29004KT 10SM CLR M11/M19 A3060 RMK AO2 SLP379 T11061194

More Conditions Fewer Conditions

Pressure 30.65 in
Visibility 10.0 miles
Clouds Clear
Windchill 5 °F
Dew Point -3 °F
Humidity 49%
Rainfall 0.00 in
Snow Depth Not available.
UV 0 out of 12
Pollen .60 out of 12
Air Quality Not available.
Flu Activity Not available.
METAR KEYE 272253Z AUTO 29004KT 10SM CLR M11/M19 A3060 RMK AO2 SLP379 T11061194

More Conditions Fewer Conditions

10-Day Weather Forecast

Almanac

Astronomy

Feb. 27, 2015 Rise Set
Actual Time
Civil Twilight
Nautical Twilight
Astronomical Twilight
Moon
Length of Visible Light
Length of Day
Tomorrow will be .
, % of the Moon is Illuminated

Today's Extremes

State Highs State Lows

Community

WunderPhotos

Upload Photos

1,800,881 photos uploaded!

WunderBlogs® & News

Nearby

Air Quality

  Air Quality AQ Index Pollutant
Not available.

Snow Depth

Station Depth Elevation

Earthquake Activity

City Distance Mag. Time & Date
Minimum magnitude displayed is 2.5.

Coastal Water Temperatures

Place Temperature

Nearby Weather Stations

Special Statement
Statement as of 4:00 PM EST on February 27, 2015

Significant snow accumulations will likely occur across the
northern two thirds of central Indiana beginning late Saturday
night and continuing Sunday into Sunday evening.

Currently we are expecting 6 inches or a little more along and
north of a line from Crawfordsville to Tipton and Muncie. In the
Indianapolis Metro area total snow amounts of 3 to 5 inches are
expected... while far southern sections from Vincennes to Bedford
and Seymour will see total snow amounts little more than an inch.

The precipitation will begin as all snow late Saturday evening and
change to or become mixed with freezing rain over southern
sections Sunday morning. On Sunday the precipitation will change
to mostly rain over southern sections... while precipitation in northern
sections remain mostly as snow.

A slight change in models may affect these snow amounts... so you
should listen to latest statements and possible watches and
warning from the National Weather Service.